sensor_id;sensor_type;location;lat;lon;timestamp;pressure;altitude;pressure_sealevel;temperature;humidity
34073;BME280;20346;52.702;16.886;2022-07-29T00:00:57;101403.43;;;14.38;48.82
34073;BME280;20346;52.702;16.886;2022-07-29T00:03:23;101402.11;;;14.41;48.86
34073;BME280;20346;52.702;16.886;2022-07-29T00:05:49;101401.69;;;14.39;48.94
34073;BME280;20346;52.702;16.886;2022-07-29T00:08:15;101401.27;;;14.38;48.99
34073;BME280;20346;52.702;16.886;2022-07-29T00:10:42;101399.14;;;14.36;49.04
34073;BME280;20346;52.702;16.886;2022-07-29T00:13:08;101399.64;;;14.32;49.13
34073;BME280;20346;52.702;16.886;2022-07-29T00:15:34;101398.43;;;14.28;49.71
34073;BME280;20346;52.702;16.886;2022-07-29T00:18:00;101400.67;;;14.23;49.33
34073;BME280;20346;52.702;16.886;2022-07-29T00:20:26;101398.98;;;14.21;49.40
34073;BME280;20346;52.702;16.886;2022-07-29T00:22:53;101401.59;;;14.21;49.48
34073;BME280;20346;52.702;16.886;2022-07-29T00:25:19;101398.52;;;14.23;50.49
34073;BME280;20346;52.702;16.886;2022-07-29T00:27:45;101402.27;;;14.31;49.82
34073;BME280;20346;52.702;16.886;2022-07-29T00:30:12;101406.53;;;14.35;50.67
34073;BME280;20346;52.702;16.886;2022-07-29T00:32:38;101409.11;;;14.36;50.00
34073;BME280;20346;52.702;16.886;2022-07-29T00:35:05;101409.08;;;14.38;50.18
34073;BME280;20346;52.702;16.886;2022-07-29T00:37:50;101409.41;;;14.45;50.36
34073;BME280;20346;52.702;16.886;2022-07-29T00:40:16;101406.66;;;14.52;50.56
34073;BME280;20346;52.702;16.886;2022-07-29T00:42:47;101405.68;;;14.56;50.73
34073;BME280;20346;52.702;16.886;2022-07-29T00:45:15;101401.21;;;14.63;50.92
34073;BME280;20346;52.702;16.886;2022-07-29T00:47:42;101398.52;;;14.68;51.17
34073;BME280;20346;52.702;16.886;2022-07-29T00:50:10;101401.88;;;14.73;51.26
34073;BME280;20346;52.702;16.886;2022-07-29T00:52:39;101395.28;;;14.77;52.32
34073;BME280;20346;52.702;16.886;2022-07-29T00:55:10;101397.80;;;14.82;51.54
34073;BME280;20346;52.702;16.886;2022-07-29T00:57:38;101390.33;;;14.86;51.74
34073;BME280;20346;52.702;16.886;2022-07-29T01:00:09;101382.00;;;14.89;51.88
34073;BME280;20346;52.702;16.886;2022-07-29T01:02:37;101385.38;;;14.95;52.05
34073;BME280;20346;52.702;16.886;2022-07-29T01:05:04;101393.11;;;14.98;52.20
34073;BME280;20346;52.702;16.886;2022-07-29T01:07:33;101386.13;;;15.00;52.41
34073;BME280;20346;52.702;16.886;2022-07-29T01:10:03;101392.13;;;15.03;52.63
34073;BME280;20346;52.702;16.886;2022-07-29T01:12:30;101388.16;;;15.06;52.71
34073;BME280;20346;52.702;16.886;2022-07-29T01:15:03;101388.91;;;15.10;52.79
34073;BME280;20346;52.702;16.886;2022-07-29T01:17:39;101391.89;;;15.12;52.91
34073;BME280;20346;52.702;16.886;2022-07-29T01:20:28;101392.27;;;15.15;53.12
34073;BME280;20346;52.702;16.886;2022-07-29T01:29:41;101395.66;;;15.18;53.55
34073;BME280;20346;52.702;16.886;2022-07-29T01:32:13;101395.73;;;15.15;53.71
34073;BME280;20346;52.702;16.886;2022-07-29T01:37:31;101387.84;;;15.18;53.91
34073;BME280;20346;52.702;16.886;2022-07-29T01:39:59;101377.84;;;15.19;54.02
34073;BME280;20346;52.702;16.886;2022-07-29T01:42:36;101380.96;;;15.16;54.21
34073;BME280;20346;52.702;16.886;2022-07-29T01:48:09;101375.34;;;15.15;54.38
34073;BME280;20346;52.702;16.886;2022-07-29T01:56:21;101373.66;;;15.12;54.69
34073;BME280;20346;52.702;16.886;2022-07-29T01:58:49;101371.09;;;15.11;54.83
34073;BME280;20346;52.702;16.886;2022-07-29T02:01:17;101374.17;;;15.09;54.96
34073;BME280;20346;52.702;16.886;2022-07-29T02:03:46;101368.10;;;15.08;55.08
34073;BME280;20346;52.702;16.886;2022-07-29T02:06:16;101367.66;;;15.09;55.16
34073;BME280;20346;52.702;16.886;2022-07-29T02:08:43;101375.55;;;15.07;55.26
34073;BME280;20346;52.702;16.886;2022-07-29T02:11:11;101366.91;;;15.05;55.39
34073;BME280;20346;52.702;16.886;2022-07-29T02:13:38;101372.56;;;15.05;55.51
34073;BME280;20346;52.702;16.886;2022-07-29T02:16:07;101382.09;;;15.06;55.58
34073;BME280;20346;52.702;16.886;2022-07-29T02:18:36;101376.91;;;15.04;55.64
34073;BME280;20346;52.702;16.886;2022-07-29T02:21:03;101382.13;;;15.04;55.70
34073;BME280;20346;52.702;16.886;2022-07-29T02:23:31;101379.58;;;15.01;55.78
34073;BME280;20346;52.702;16.886;2022-07-29T02:25:59;101383.59;;;14.97;55.91
34073;BME280;20346;52.702;16.886;2022-07-29T02:28:27;101381.88;;;14.96;55.96
34073;BME280;20346;52.702;16.886;2022-07-29T02:30:57;101381.15;;;14.89;56.03
34073;BME280;20346;52.702;16.886;2022-07-29T02:33:25;101372.98;;;14.85;56.18
34073;BME280;20346;52.702;16.886;2022-07-29T02:35:52;101378.27;;;14.82;56.29
34073;BME280;20346;52.702;16.886;2022-07-29T02:38:20;101371.81;;;14.79;56.34
34073;BME280;20346;52.702;16.886;2022-07-29T02:41:15;101370.58;;;14.76;56.42
34073;BME280;20346;52.702;16.886;2022-07-29T02:44:03;101372.84;;;14.72;56.51
34073;BME280;20346;52.702;16.886;2022-07-29T02:46:34;101366.83;;;14.68;56.57
34073;BME280;20346;52.702;16.886;2022-07-29T02:52:01;101366.11;;;14.62;56.70
34073;BME280;20346;52.702;16.886;2022-07-29T02:57:20;101366.73;;;14.53;56.82
34073;BME280;20346;52.702;16.886;2022-07-29T02:59:57;101358.13;;;14.50;56.88
34073;BME280;20346;52.702;16.886;2022-07-29T03:02:26;101356.86;;;14.48;56.97
34073;BME280;20346;52.702;16.886;2022-07-29T03:04:55;101356.95;;;14.44;57.03
34073;BME280;20346;52.702;16.886;2022-07-29T03:07:23;101353.99;;;14.38;57.09
34073;BME280;20346;52.702;16.886;2022-07-29T03:09:49;101359.28;;;14.34;57.21
34073;BME280;20346;52.702;16.886;2022-07-29T03:12:17;101352.84;;;14.31;57.30
34073;BME280;20346;52.702;16.886;2022-07-29T03:14:44;101354.62;;;14.29;57.36
34073;BME280;20346;52.702;16.886;2022-07-29T03:17:12;101350.77;;;14.25;57.37
34073;BME280;20346;52.702;16.886;2022-07-29T03:19:38;101351.66;;;14.24;57.44
34073;BME280;20346;52.702;16.886;2022-07-29T03:22:04;101346.55;;;14.20;58.06
34073;BME280;20346;52.702;16.886;2022-07-29T03:24:33;101347.93;;;14.15;57.55
34073;BME280;20346;52.702;16.886;2022-07-29T03:27:02;101352.69;;;14.16;57.68
34073;BME280;20346;52.702;16.886;2022-07-29T03:29:28;101353.11;;;14.17;57.73
34073;BME280;20346;52.702;16.886;2022-07-29T03:31:55;101349.67;;;14.15;57.86
34073;BME280;20346;52.702;16.886;2022-07-29T03:34:21;101355.73;;;14.15;57.92
34073;BME280;20346;52.702;16.886;2022-07-29T03:36:48;101361.73;;;14.19;58.07
34073;BME280;20346;52.702;16.886;2022-07-29T03:39:22;101359.49;;;14.23;58.11
34073;BME280;20346;52.702;16.886;2022-07-29T03:41:49;101358.16;;;14.24;58.75
34073;BME280;20346;52.702;16.886;2022-07-29T03:44:17;101357.75;;;14.23;58.25
34073;BME280;20346;52.702;16.886;2022-07-29T03:46:45;101354.64;;;14.27;58.35
34073;BME280;20346;52.702;16.886;2022-07-29T03:49:14;101352.40;;;14.31;58.41
34073;BME280;20346;52.702;16.886;2022-07-29T03:51:43;101353.25;;;14.32;58.55
34073;BME280;20346;52.702;16.886;2022-07-29T03:54:09;101353.23;;;14.33;58.63
34073;BME280;20346;52.702;16.886;2022-07-29T03:56:40;101348.38;;;14.37;58.76
34073;BME280;20346;52.702;16.886;2022-07-29T03:59:10;101351.36;;;14.41;58.82
34073;BME280;20346;52.702;16.886;2022-07-29T04:01:37;101345.69;;;14.43;59.00
34073;BME280;20346;52.702;16.886;2022-07-29T04:04:05;101350.45;;;14.44;59.19
34073;BME280;20346;52.702;16.886;2022-07-29T04:06:43;101349.56;;;14.45;59.25
34073;BME280;20346;52.702;16.886;2022-07-29T04:09:07;101353.40;;;14.48;59.29
34073;BME280;20346;52.702;16.886;2022-07-29T04:11:33;101354.64;;;14.51;59.43
34073;BME280;20346;52.702;16.886;2022-07-29T04:14:00;101352.86;;;14.53;59.51
34073;BME280;20346;52.702;16.886;2022-07-29T04:16:26;101357.50;;;14.58;59.58
34073;BME280;20346;52.702;16.886;2022-07-29T04:18:53;101329.09;;;14.49;59.65
34073;BME280;20346;52.702;16.886;2022-07-29T04:21:18;101362.45;;;14.70;59.69
34073;BME280;20346;52.702;16.886;2022-07-29T04:23:45;101357.59;;;14.74;59.75
34073;BME280;20346;52.702;16.886;2022-07-29T04:26:13;101357.94;;;14.78;59.80
34073;BME280;20346;52.702;16.886;2022-07-29T04:28:38;101358.73;;;14.82;59.86
34073;BME280;20346;52.702;16.886;2022-07-29T04:31:05;101368.64;;;14.85;59.96
34073;BME280;20346;52.702;16.886;2022-07-29T04:33:32;101369.40;;;14.90;60.06
34073;BME280;20346;52.702;16.886;2022-07-29T04:35:58;101376.29;;;14.93;60.15
34073;BME280;20346;52.702;16.886;2022-07-29T04:38:26;101373.62;;;14.96;60.23
34073;BME280;20346;52.702;16.886;2022-07-29T04:40:52;101381.77;;;15.00;60.31
34073;BME280;20346;52.702;16.886;2022-07-29T04:43:18;101388.22;;;15.03;60.41
34073;BME280;20346;52.702;16.886;2022-07-29T04:45:44;101382.09;;;15.06;60.49
34073;BME280;20346;52.702;16.886;2022-07-29T04:48:10;101386.23;;;15.13;60.74
34073;BME280;20346;52.702;16.886;2022-07-29T04:50:40;101386.23;;;15.13;60.74
34073;BME280;20346;52.702;16.886;2022-07-29T04:53:06;101382.30;;;15.14;60.85
34073;BME280;20346;52.702;16.886;2022-07-29T04:55:32;101383.46;;;15.20;60.86
34073;BME280;20346;52.702;16.886;2022-07-29T04:57:59;101375.98;;;15.24;61.60
34073;BME280;20346;52.702;16.886;2022-07-29T05:00:25;101379.83;;;15.28;60.98
34073;BME280;20346;52.702;16.886;2022-07-29T05:02:51;101380.09;;;15.35;61.05
34073;BME280;20346;52.702;16.886;2022-07-29T05:05:17;101379.47;;;15.43;61.08
34073;BME280;20346;52.702;16.886;2022-07-29T05:07:43;101385.77;;;15.52;61.29
34073;BME280;20346;52.702;16.886;2022-07-29T05:10:09;101376.12;;;15.57;61.92
34073;BME280;20346;52.702;16.886;2022-07-29T05:12:37;101379.84;;;15.63;61.44
34073;BME280;20346;52.702;16.886;2022-07-29T05:15:03;101371.80;;;15.72;61.51
34073;BME280;20346;52.702;16.886;2022-07-29T05:17:30;101375.85;;;15.84;61.55
34073;BME280;20346;52.702;16.886;2022-07-29T05:19:56;101374.16;;;15.99;61.74
34073;BME280;20346;52.702;16.886;2022-07-29T05:22:22;101375.22;;;16.23;61.77
34073;BME280;20346;52.702;16.886;2022-07-29T05:24:48;101372.00;;;16.61;61.74
34073;BME280;20346;52.702;16.886;2022-07-29T05:27:15;101361.28;;;16.99;61.42
34073;BME280;20346;52.702;16.886;2022-07-29T05:29:41;101359.36;;;17.45;61.61
34073;BME280;20346;52.702;16.886;2022-07-29T05:32:07;101355.23;;;18.03;61.64
34073;BME280;20346;52.702;16.886;2022-07-29T05:34:33;101358.61;;;18.66;61.47
34073;BME280;20346;52.702;16.886;2022-07-29T05:36:59;101351.32;;;19.28;61.33
34073;BME280;20346;52.702;16.886;2022-07-29T05:39:25;101358.10;;;19.86;61.19
34073;BME280;20346;52.702;16.886;2022-07-29T05:41:51;101359.31;;;20.38;60.94
34073;BME280;20346;52.702;16.886;2022-07-29T05:44:17;101353.77;;;20.82;60.72
34073;BME280;20346;52.702;16.886;2022-07-29T05:46:43;101357.66;;;21.30;60.54
34073;BME280;20346;52.702;16.886;2022-07-29T05:49:09;101355.89;;;21.73;60.54
34073;BME280;20346;52.702;16.886;2022-07-29T05:51:35;101358.66;;;22.13;60.29
34073;BME280;20346;52.702;16.886;2022-07-29T05:54:01;101365.16;;;22.39;59.77
34073;BME280;20346;52.702;16.886;2022-07-29T05:56:28;101363.54;;;22.61;59.64
34073;BME280;20346;52.702;16.886;2022-07-29T05:58:54;101360.46;;;22.93;59.60
34073;BME280;20346;52.702;16.886;2022-07-29T06:01:21;101364.31;;;23.26;58.31
34073;BME280;20346;52.702;16.886;2022-07-29T06:03:47;101366.84;;;23.51;59.11
34073;BME280;20346;52.702;16.886;2022-07-29T06:06:13;101370.45;;;23.80;59.00
34073;BME280;20346;52.702;16.886;2022-07-29T06:08:39;101369.73;;;24.13;58.61
34073;BME280;20346;52.702;16.886;2022-07-29T06:11:05;101365.20;;;24.22;58.32
34073;BME280;20346;52.702;16.886;2022-07-29T06:13:34;101339.40;;;24.75;58.22
34073;BME280;20346;52.702;16.886;2022-07-29T06:16:00;101339.40;;;24.75;58.22
34073;BME280;20346;52.702;16.886;2022-07-29T06:18:26;101360.36;;;25.20;57.90
34073;BME280;20346;52.702;16.886;2022-07-29T06:20:53;101362.14;;;25.46;57.52
34073;BME280;20346;52.702;16.886;2022-07-29T06:23:20;101364.58;;;25.69;57.36
34073;BME280;20346;52.702;16.886;2022-07-29T06:25:46;101362.13;;;25.98;57.10
34073;BME280;20346;52.702;16.886;2022-07-29T06:28:12;101373.13;;;26.18;56.26
34073;BME280;20346;52.702;16.886;2022-07-29T06:30:39;101364.41;;;26.35;56.49
34073;BME280;20346;52.702;16.886;2022-07-29T06:33:05;101365.05;;;26.39;55.91
34073;BME280;20346;52.702;16.886;2022-07-29T06:35:35;101358.15;;;26.55;55.74
34073;BME280;20346;52.702;16.886;2022-07-29T06:38:02;101360.48;;;26.78;55.52
34073;BME280;20346;52.702;16.886;2022-07-29T06:40:29;101360.80;;;27.10;55.09
34073;BME280;20346;52.702;16.886;2022-07-29T06:43:13;101362.11;;;27.28;54.67
34073;BME280;20346;52.702;16.886;2022-07-29T06:45:39;101361.63;;;27.28;54.01
34073;BME280;20346;52.702;16.886;2022-07-29T06:48:06;101359.79;;;27.23;53.88
34073;BME280;20346;52.702;16.886;2022-07-29T06:50:32;101355.13;;;27.09;53.36
34073;BME280;20346;52.702;16.886;2022-07-29T06:53:02;101351.48;;;26.98;53.20
34073;BME280;20346;52.702;16.886;2022-07-29T06:55:34;101354.62;;;27.03;52.98
34073;BME280;20346;52.702;16.886;2022-07-29T06:58:02;101353.80;;;27.32;52.68
34073;BME280;20346;52.702;16.886;2022-07-29T07:00:28;101358.94;;;27.58;52.30
34073;BME280;20346;52.702;16.886;2022-07-29T07:02:54;101360.45;;;27.67;51.93
34073;BME280;20346;52.702;16.886;2022-07-29T07:05:20;101364.63;;;27.94;51.67
34073;BME280;20346;52.702;16.886;2022-07-29T07:07:46;101359.42;;;28.09;51.11
34073;BME280;20346;52.702;16.886;2022-07-29T07:10:13;101359.23;;;28.34;50.80
34073;BME280;20346;52.702;16.886;2022-07-29T07:12:40;101361.41;;;28.57;50.47
34073;BME280;20346;52.702;16.886;2022-07-29T07:15:06;101362.62;;;28.59;49.92
34073;BME280;20346;52.702;16.886;2022-07-29T07:17:32;101354.03;;;28.50;49.28
34073;BME280;20346;52.702;16.886;2022-07-29T07:19:58;101358.51;;;28.44;49.44
34073;BME280;20346;52.702;16.886;2022-07-29T07:22:24;101354.88;;;28.33;49.07
34073;BME280;20346;52.702;16.886;2022-07-29T07:24:50;101356.21;;;28.45;49.16
34073;BME280;20346;52.702;16.886;2022-07-29T07:27:16;101342.98;;;28.65;48.70
34073;BME280;20346;52.702;16.886;2022-07-29T07:29:42;101343.58;;;28.86;47.93
34073;BME280;20346;52.702;16.886;2022-07-29T07:32:08;101339.34;;;28.89;48.11
34073;BME280;20346;52.702;16.886;2022-07-29T07:34:34;101333.14;;;28.99;47.82
34073;BME280;20346;52.702;16.886;2022-07-29T07:37:00;101332.42;;;28.97;47.31
34073;BME280;20346;52.702;16.886;2022-07-29T07:39:26;101330.98;;;28.88;46.76
34073;BME280;20346;52.702;16.886;2022-07-29T07:41:52;101329.29;;;28.76;46.51
34073;BME280;20346;52.702;16.886;2022-07-29T07:44:18;101335.34;;;28.72;46.41
34073;BME280;20346;52.702;16.886;2022-07-29T07:46:44;101336.08;;;28.68;46.17
34073;BME280;20346;52.702;16.886;2022-07-29T07:49:11;101338.75;;;28.63;45.88
34073;BME280;20346;52.702;16.886;2022-07-29T07:51:37;101343.02;;;28.54;45.18
34073;BME280;20346;52.702;16.886;2022-07-29T07:54:04;101346.41;;;28.51;45.15
34073;BME280;20346;52.702;16.886;2022-07-29T07:56:30;101340.84;;;28.59;44.56
34073;BME280;20346;52.702;16.886;2022-07-29T07:58:56;101345.31;;;28.59;44.54
34073;BME280;20346;52.702;16.886;2022-07-29T08:01:23;101345.56;;;28.56;44.23
34073;BME280;20346;52.702;16.886;2022-07-29T08:03:49;101345.81;;;28.30;42.56
34073;BME280;20346;52.702;16.886;2022-07-29T08:06:15;101345.64;;;27.87;43.76
34073;BME280;20346;52.702;16.886;2022-07-29T08:08:41;101344.02;;;27.62;43.84
34073;BME280;20346;52.702;16.886;2022-07-29T08:11:07;101347.06;;;27.40;43.45
34073;BME280;20346;52.702;16.886;2022-07-29T08:13:33;101345.98;;;27.13;43.39
34073;BME280;20346;52.702;16.886;2022-07-29T08:16:00;101341.94;;;26.96;43.39
34073;BME280;20346;52.702;16.886;2022-07-29T08:18:28;101341.17;;;26.76;43.17
34073;BME280;20346;52.702;16.886;2022-07-29T08:20:57;101343.07;;;26.50;42.96
34073;BME280;20346;52.702;16.886;2022-07-29T08:23:24;101343.56;;;26.36;42.90
34073;BME280;20346;52.702;16.886;2022-07-29T08:25:51;101350.02;;;26.20;42.68
34073;BME280;20346;52.702;16.886;2022-07-29T08:28:18;101345.78;;;26.04;42.66
34073;BME280;20346;52.702;16.886;2022-07-29T08:30:44;101344.77;;;26.00;42.55
34073;BME280;20346;52.702;16.886;2022-07-29T08:33:10;101344.91;;;25.98;42.51
34073;BME280;20346;52.702;16.886;2022-07-29T08:35:38;101343.20;;;25.97;42.36
34073;BME280;20346;52.702;16.886;2022-07-29T08:38:04;101345.02;;;25.97;42.22
34073;BME280;20346;52.702;16.886;2022-07-29T08:40:30;101346.70;;;25.98;42.23
34073;BME280;20346;52.702;16.886;2022-07-29T08:42:57;101347.84;;;26.06;42.13
34073;BME280;20346;52.702;16.886;2022-07-29T08:45:25;101353.30;;;26.23;42.00
34073;BME280;20346;52.702;16.886;2022-07-29T08:47:52;101351.57;;;26.42;42.15
34073;BME280;20346;52.702;16.886;2022-07-29T08:50:19;101350.86;;;26.64;41.80
34073;BME280;20346;52.702;16.886;2022-07-29T08:52:45;101347.92;;;26.74;41.61
34073;BME280;20346;52.702;16.886;2022-07-29T08:55:14;101348.22;;;26.82;41.65
34073;BME280;20346;52.702;16.886;2022-07-29T08:57:41;101353.34;;;26.91;41.57
34073;BME280;20346;52.702;16.886;2022-07-29T09:00:07;101349.77;;;26.79;41.18
34073;BME280;20346;52.702;16.886;2022-07-29T09:02:41;101352.34;;;26.68;41.24
34073;BME280;20346;52.702;16.886;2022-07-29T09:05:11;101353.14;;;26.63;41.01
34073;BME280;20346;52.702;16.886;2022-07-29T09:07:38;101362.23;;;26.53;40.58
34073;BME280;20346;52.702;16.886;2022-07-29T09:10:05;101353.80;;;26.35;40.99
34073;BME280;20346;52.702;16.886;2022-07-29T09:12:32;101355.27;;;26.27;40.96
34073;BME280;20346;52.702;16.886;2022-07-29T09:14:58;101354.73;;;26.22;40.64
34073;BME280;20346;52.702;16.886;2022-07-29T09:17:42;101352.94;;;26.10;40.57
34073;BME280;20346;52.702;16.886;2022-07-29T09:20:12;101345.38;;;25.98;40.71
34073;BME280;20346;52.702;16.886;2022-07-29T09:22:41;101351.58;;;25.91;40.52
34073;BME280;20346;52.702;16.886;2022-07-29T09:25:07;101353.32;;;25.85;40.42
34073;BME280;20346;52.702;16.886;2022-07-29T09:27:34;101349.91;;;25.70;40.43
34073;BME280;20346;52.702;16.886;2022-07-29T09:30:13;101357.02;;;25.63;40.51
34073;BME280;20346;52.702;16.886;2022-07-29T09:32:57;101354.77;;;25.57;40.34
34073;BME280;20346;52.702;16.886;2022-07-29T09:35:28;101355.56;;;25.52;40.44
34073;BME280;20346;52.702;16.886;2022-07-29T09:37:55;101357.05;;;25.56;40.47
34073;BME280;20346;52.702;16.886;2022-07-29T09:40:26;101354.02;;;25.42;39.99
34073;BME280;20346;52.702;16.886;2022-07-29T09:42:54;101346.79;;;25.31;40.14
34073;BME280;20346;52.702;16.886;2022-07-29T09:45:31;101345.59;;;25.23;40.17
34073;BME280;20346;52.702;16.886;2022-07-29T09:47:58;101345.90;;;25.18;40.14
34073;BME280;20346;52.702;16.886;2022-07-29T09:50:38;101345.92;;;25.11;39.74
34073;BME280;20346;52.702;16.886;2022-07-29T09:53:05;101347.66;;;24.98;40.04
34073;BME280;20346;52.702;16.886;2022-07-29T09:55:32;101331.16;;;24.87;39.90
34073;BME280;20346;52.702;16.886;2022-07-29T09:58:18;101358.75;;;24.83;39.66
34073;BME280;20346;52.702;16.886;2022-07-29T10:00:46;101351.41;;;24.67;39.69
34073;BME280;20346;52.702;16.886;2022-07-29T10:03:14;101351.32;;;24.61;39.94
34073;BME280;20346;52.702;16.886;2022-07-29T10:05:42;101355.66;;;24.62;39.95
34073;BME280;20346;52.702;16.886;2022-07-29T10:08:09;101354.72;;;24.63;39.91
34073;BME280;20346;52.702;16.886;2022-07-29T10:10:42;101356.14;;;24.62;39.92
34073;BME280;20346;52.702;16.886;2022-07-29T10:13:13;101348.77;;;24.60;39.95
34073;BME280;20346;52.702;16.886;2022-07-29T10:15:41;101341.78;;;24.59;40.30
34073;BME280;20346;52.702;16.886;2022-07-29T10:18:11;101341.78;;;24.59;40.30
34073;BME280;20346;52.702;16.886;2022-07-29T10:20:39;101341.13;;;24.62;39.92
34073;BME280;20346;52.702;16.886;2022-07-29T10:23:05;101329.88;;;24.66;39.91
34073;BME280;20346;52.702;16.886;2022-07-29T10:25:32;101333.08;;;24.71;39.97
34073;BME280;20346;52.702;16.886;2022-07-29T10:28:01;101323.03;;;24.83;39.90
34073;BME280;20346;52.702;16.886;2022-07-29T10:30:27;101319.78;;;24.99;39.90
34073;BME280;20346;52.702;16.886;2022-07-29T10:42:20;101313.25;;;25.45;39.42
34073;BME280;20346;52.702;16.886;2022-07-29T10:44:48;101312.44;;;25.50;39.33
34073;BME280;20346;52.702;16.886;2022-07-29T10:47:25;101320.48;;;25.48;39.23
34073;BME280;20346;52.702;16.886;2022-07-29T10:49:59;101321.09;;;25.46;39.16
34073;BME280;20346;52.702;16.886;2022-07-29T10:52:51;101324.35;;;25.50;39.20
34073;BME280;20346;52.702;16.886;2022-07-29T10:55:38;101325.27;;;25.56;39.11
34073;BME280;20346;52.702;16.886;2022-07-29T10:58:18;101317.58;;;25.65;38.92
34073;BME280;20346;52.702;16.886;2022-07-29T11:00:47;101315.27;;;25.73;38.83
34073;BME280;20346;52.702;16.886;2022-07-29T11:03:42;101317.81;;;25.88;38.71
34073;BME280;20346;52.702;16.886;2022-07-29T11:06:11;101313.79;;;25.95;38.47
34073;BME280;20346;52.702;16.886;2022-07-29T11:08:37;101314.00;;;25.92;38.56
34073;BME280;20346;52.702;16.886;2022-07-29T11:13:56;101311.34;;;25.79;38.32
34073;BME280;20346;52.702;16.886;2022-07-29T11:16:23;101302.92;;;25.80;38.21
34073;BME280;20346;52.702;16.886;2022-07-29T11:21:45;101307.75;;;25.93;38.20
34073;BME280;20346;52.702;16.886;2022-07-29T11:24:14;101302.78;;;26.06;38.14
34073;BME280;20346;52.702;16.886;2022-07-29T11:29:52;101308.03;;;26.14;37.81
34073;BME280;20346;52.702;16.886;2022-07-29T11:32:21;101310.78;;;26.12;37.93
34073;BME280;20346;52.702;16.886;2022-07-29T11:35:10;101309.72;;;26.15;37.92
34073;BME280;20346;52.702;16.886;2022-07-29T11:37:36;101305.74;;;26.15;37.82
34073;BME280;20346;52.702;16.886;2022-07-29T11:40:08;101312.11;;;26.12;37.72
34073;BME280;20346;52.702;16.886;2022-07-29T11:42:38;101293.77;;;26.09;37.73
34073;BME280;20346;52.702;16.886;2022-07-29T11:45:20;101302.98;;;26.16;37.59
34073;BME280;20346;52.702;16.886;2022-07-29T11:47:51;101306.59;;;26.15;37.45
34073;BME280;20346;52.702;16.886;2022-07-29T11:50:27;101309.09;;;26.11;37.47
34073;BME280;20346;52.702;16.886;2022-07-29T11:53:00;101307.18;;;26.13;37.43
34073;BME280;20346;52.702;16.886;2022-07-29T11:55:28;101304.16;;;26.12;37.27
34073;BME280;20346;52.702;16.886;2022-07-29T11:57:58;101306.48;;;26.17;37.17
34073;BME280;20346;52.702;16.886;2022-07-29T12:00:31;101308.23;;;26.11;36.80
34073;BME280;20346;52.702;16.886;2022-07-29T12:03:01;101308.03;;;26.14;36.88
34073;BME280;20346;52.702;16.886;2022-07-29T12:05:39;101306.84;;;25.99;36.54
34073;BME280;20346;52.702;16.886;2022-07-29T12:08:20;101307.80;;;25.86;36.65
34073;BME280;20346;52.702;16.886;2022-07-29T12:10:48;101297.09;;;25.75;36.54
34073;BME280;20346;52.702;16.886;2022-07-29T12:13:17;101300.42;;;25.71;36.62
34073;BME280;20346;52.702;16.886;2022-07-29T12:15:57;101286.54;;;25.67;36.51
34073;BME280;20346;52.702;16.886;2022-07-29T12:18:24;101288.13;;;25.70;36.59
34073;BME280;20346;52.702;16.886;2022-07-29T12:20:58;101287.55;;;25.72;36.55
34073;BME280;20346;52.702;16.886;2022-07-29T12:23:27;101291.31;;;25.75;36.53
34073;BME280;20346;52.702;16.886;2022-07-29T12:25:54;101284.27;;;25.81;36.51
34073;BME280;20346;52.702;16.886;2022-07-29T12:28:20;101292.80;;;25.79;36.43
34073;BME280;20346;52.702;16.886;2022-07-29T12:30:49;101277.64;;;25.81;36.33
34073;BME280;20346;52.702;16.886;2022-07-29T12:35:58;101279.45;;;25.81;36.19
34073;BME280;20346;52.702;16.886;2022-07-29T12:38:25;101280.30;;;25.81;36.06
34073;BME280;20346;52.702;16.886;2022-07-29T12:40:53;101262.80;;;25.79;36.07
34073;BME280;20346;52.702;16.886;2022-07-29T12:43:22;101260.73;;;25.77;36.03
34073;BME280;20346;52.702;16.886;2022-07-29T12:45:55;101263.66;;;25.79;36.00
34073;BME280;20346;52.702;16.886;2022-07-29T12:48:40;101261.11;;;25.78;35.99
34073;BME280;20346;52.702;16.886;2022-07-29T12:51:09;101265.13;;;25.70;35.58
34073;BME280;20346;52.702;16.886;2022-07-29T12:53:37;101263.92;;;25.69;35.74
34073;BME280;20346;52.702;16.886;2022-07-29T13:07:13;101244.95;;;25.88;35.61
34073;BME280;20346;52.702;16.886;2022-07-29T13:17:06;101232.32;;;26.10;35.44
34073;BME280;20346;52.702;16.886;2022-07-29T13:23:15;101231.78;;;26.17;35.19
34073;BME280;20346;52.702;16.886;2022-07-29T13:25:41;101213.51;;;26.07;35.03
34073;BME280;20346;52.702;16.886;2022-07-29T13:28:08;101233.21;;;26.16;35.03
34073;BME280;20346;52.702;16.886;2022-07-29T13:30:35;101223.94;;;26.16;35.06
34073;BME280;20346;52.702;16.886;2022-07-29T13:33:01;101224.20;;;26.18;35.02
34073;BME280;20346;52.702;16.886;2022-07-29T13:35:28;101218.63;;;26.16;34.84
34073;BME280;20346;52.702;16.886;2022-07-29T13:37:55;101213.88;;;26.08;34.78
34073;BME280;20346;52.702;16.886;2022-07-29T13:40:21;101215.41;;;25.99;34.74
34073;BME280;20346;52.702;16.886;2022-07-29T13:42:48;101211.50;;;25.92;34.76
34073;BME280;20346;52.702;16.886;2022-07-29T13:45:14;101211.61;;;25.91;34.75
34073;BME280;20346;52.702;16.886;2022-07-29T13:47:41;101207.78;;;25.95;34.61
34073;BME280;20346;52.702;16.886;2022-07-29T13:50:08;101212.67;;;25.88;34.18
34073;BME280;20346;52.702;16.886;2022-07-29T13:52:36;101203.94;;;25.81;34.33
34073;BME280;20346;52.702;16.886;2022-07-29T13:55:04;101203.19;;;25.79;34.37